Archiv-/Tagesdaten

--Timestamp---	Temp	Chill	HIndex	Humid	Dewpt	Wind	HiWind	WindDir	Rain	Barom	Solar	ET	UV
--------------	----	-----	------	-----	-----	----	------	-------	----	-----	-----	--	--
20070906 00:05	8.9	8.1	8.9	81	5.8	6	11	270	0.00	1025.198	0	0.000	0
20070906 00:10	8.9	7.4	8.9	81	5.8	10	19	270	0.00	1025.029	0	0.000	0
20070906 00:15	8.9	7.4	8.9	81	5.8	10	19	270	0.00	1024.758	0	0.000	0
20070906 00:20	8.9	7.7	8.9	81	5.8	8	18	270	0.00	1024.589	0	0.000	0
20070906 00:25	8.9	7.4	8.9	81	5.9	10	19	270	0.00	1024.555	0	0.000	0
20070906 00:30	8.9	7.1	8.9	81	5.8	11	24	270	0.00	1024.487	0	0.000	0
20070906 00:35	8.9	7.4	8.9	81	5.9	10	19	270	0.00	1024.656	0	0.000	0
20070906 00:40	8.9	7.4	8.9	81	5.9	10	18	270	0.00	1024.758	0	0.000	0
20070906 00:45	8.9	7.7	8.9	81	5.8	8	16	270	0.00	1024.758	0	0.000	0
20070906 00:50	8.9	7.7	8.9	81	5.8	8	16	270	0.00	1024.589	0	0.000	0
20070906 00:55	8.8	7.6	8.8	81	5.8	8	24	270	0.00	1024.623	0	0.000	0
20070906 01:00	8.8	7.6	8.8	82	5.9	8	19	270	0.00	1024.521	0	0.020	0
20070906 01:05	8.8	7.6	8.8	81	5.8	8	18	270	0.00	1024.589	0	0.000	0
20070906 01:10	8.8	7.6	8.8	82	5.9	8	21	270	0.00	1024.487	0	0.000	0
20070906 01:15	8.8	7.2	8.8	81	5.7	10	21	270	0.00	1024.419	0	0.000	0
20070906 01:20	8.8	7.6	8.8	81	5.7	8	18	270	0.00	1024.453	0	0.000	0
20070906 01:25	8.8	7.6	8.8	81	5.7	8	18	292	0.00	1024.623	0	0.000	0
20070906 01:30	8.8	7.6	8.8	81	5.7	8	16	270	0.00	1024.656	0	0.000	0
20070906 01:35	8.7	7.5	8.7	82	5.8	8	14	247	0.00	1024.555	0	0.000	0
20070906 01:40	8.7	7.4	8.7	81	5.6	8	16	247	0.00	1024.555	0	0.000	0
20070906 01:45	8.7	7.4	8.7	82	5.8	8	16	247	0.00	1024.216	0	0.000	0
20070906 01:50	8.6	7.1	8.6	81	5.5	10	21	270	0.00	1024.216	0	0.000	0
20070906 01:55	8.6	7.3	8.6	81	5.5	8	14	270	0.00	1024.521	0	0.000	0
20070906 02:00	8.6	7.7	8.6	81	5.5	6	11	270	0.00	1024.758	0	0.020	0
20070906 02:05	8.5	7.2	8.5	82	5.6	8	14	270	0.00	1024.690	0	0.000	0
20070906 02:10	8.4	7.6	8.4	82	5.5	6	14	270	0.00	1024.656	0	0.000	0
20070906 02:15	8.4	7.2	8.4	82	5.5	8	16	270	0.00	1024.623	0	0.000	0
20070906 02:20	8.4	7.1	8.4	82	5.5	8	18	270	0.00	1024.690	0	0.000	0
20070906 02:25	8.3	7.1	8.3	82	5.4	8	11	270	0.00	1024.656	0	0.000	0
20070906 02:30	8.3	7.4	8.3	83	5.6	6	16	270	0.00	1024.589	0	0.000	0
20070906 02:35	8.3	7.0	8.3	83	5.6	8	14	270	0.00	1024.656	0	0.000	0
20070906 02:40	8.2	6.9	8.2	83	5.5	8	14	270	0.00	1024.656	0	0.000	0
20070906 02:45	8.2	6.5	8.2	83	5.5	10	19	270	0.00	1024.623	0	0.000	0
20070906 02:50	8.2	7.3	8.2	83	5.5	6	18	270	0.00	1024.589	0	0.000	0
20070906 02:55	8.1	7.2	8.1	83	5.4	6	11	247	0.00	1024.555	0	0.000	0
20070906 03:00	8.1	6.8	8.1	83	5.4	8	14	270	0.00	1024.656	0	0.020	0
20070906 03:05	8.1	6.8	8.1	83	5.4	8	16	247	0.00	1024.385	0	0.000	0
20070906 03:10	8.1	6.4	8.1	83	5.3	10	19	270	0.00	1024.385	0	0.000	0
20070906 03:15	8.1	6.4	8.1	83	5.3	10	18	270	0.00	1024.385	0	0.000	0
20070906 03:20	8.0	6.7	8.0	83	5.3	8	23	247	0.00	1024.385	0	0.000	0
20070906 03:25	8.0	6.3	8.0	83	5.3	10	19	270	0.00	1024.589	0	0.000	0
20070906 03:30	7.9	6.6	7.9	84	5.4	8	18	270	0.00	1024.555	0	0.000	0
20070906 03:35	7.9	6.6	7.9	83	5.2	8	18	270	0.00	1024.589	0	0.000	0
20070906 03:40	7.9	6.9	7.9	83	5.2	6	16	247	0.00	1024.589	0	0.000	0
20070906 03:45	7.9	6.2	7.9	83	5.2	10	18	270	0.00	1024.589	0	0.000	0
20070906 03:50	7.9	6.5	7.9	83	5.2	8	16	270	0.00	1024.521	0	0.000	0
20070906 03:55	7.8	6.5	7.8	83	5.1	8	18	270	0.00	1024.487	0	0.000	0
20070906 04:00	7.8	6.9	7.8	83	5.1	6	14	270	0.00	1024.453	0	0.020	0
20070906 04:05	7.8	6.4	7.8	83	5.1	8	14	270	0.00	1024.318	0	0.000	0
20070906 04:10	7.8	6.4	7.8	83	5.1	8	16	270	0.00	1024.318	0	0.000	0
20070906 04:15	7.7	6.3	7.7	83	5.0	8	14	270	0.00	1024.216	0	0.000	0
20070906 04:20	7.7	6.3	7.7	83	5.0	8	16	270	0.00	1024.216	0	0.000	0
20070906 04:25	7.7	6.3	7.7	83	5.0	8	19	247	0.00	1024.115	0	0.000	0
20070906 04:30	7.7	6.7	7.7	83	5.0	6	14	270	0.00	1024.148	0	0.000	0
20070906 04:35	7.7	6.3	7.7	83	5.0	8	11	270	0.00	1024.182	0	0.000	0
20070906 04:40	7.7	6.3	7.7	83	5.0	8	13	270	0.00	1024.115	0	0.000	0
20070906 04:45	7.7	6.3	7.7	83	5.0	8	14	270	0.00	1024.115	0	0.000	0
20070906 04:50	7.7	5.9	7.7	83	5.0	10	18	270	0.00	1024.182	0	0.000	0
20070906 04:55	7.7	6.3	7.7	83	5.0	8	27	270	0.00	1024.115	0	0.000	0
20070906 05:00	7.7	6.3	7.7	83	5.0	8	14	247	0.00	1024.115	0	0.020	0
20070906 05:05	7.7	6.3	7.7	83	5.0	8	23	270	0.00	1024.081	0	0.000	0
20070906 05:10	7.7	6.0	7.7	83	5.0	10	21	270	0.00	1023.945	0	0.000	0
20070906 05:15	7.8	6.1	7.8	83	5.1	10	23	270	0.00	1023.911	0	0.000	0
20070906 05:20	7.8	6.4	7.8	83	5.1	8	16	270	0.00	1023.810	0	0.000	0
20070906 05:25	7.8	6.1	7.8	83	5.1	10	19	270	0.00	1023.911	0	0.000	0
20070906 05:30	7.7	6.7	7.7	83	5.0	6	11	270	0.00	1024.081	0	0.000	0
20070906 05:35	7.7	6.3	7.7	83	5.0	8	19	270	0.00	1024.115	0	0.000	0
20070906 05:40	7.7	6.3	7.7	83	5.0	8	18	270	0.00	1024.081	0	0.000	0
20070906 05:45	7.8	6.1	7.8	83	5.1	10	23	270	0.00	1024.148	0	0.000	0
20070906 05:50	7.8	6.4	7.8	83	5.1	8	14	270	0.00	1023.878	0	0.000	0
20070906 05:55	7.8	6.1	7.8	83	5.1	10	18	270	0.00	1023.911	0	0.000	0
20070906 06:00	7.8	6.8	7.8	83	5.1	6	16	270	0.00	1023.911	0	0.020	0
20070906 06:05	7.8	6.1	7.8	83	5.1	10	18	270	0.00	1023.979	0	0.000	0
20070906 06:10	7.8	6.4	7.8	83	5.1	8	18	270	0.00	1024.216	0	0.000	0
20070906 06:15	7.8	6.1	7.8	83	5.1	10	19	270	0.00	1024.115	0	0.000	0
20070906 06:20	7.7	6.7	7.7	83	5.0	6	16	270	0.00	1024.216	0	0.000	0
20070906 06:25	7.7	6.7	7.7	83	5.0	6	18	270	0.00	1024.250	0	0.000	0
20070906 06:30	7.7	6.7	7.7	84	5.2	6	11	270	0.00	1024.284	0	0.000	0
20070906 06:35	7.7	6.7	7.7	84	5.2	6	11	270	0.00	1024.318	0	0.000	0
20070906 06:40	7.7	6.7	7.7	84	5.1	6	14	247	0.00	1024.081	0	0.000	0
20070906 06:45	7.7	6.3	7.7	84	5.1	8	19	270	0.00	1024.318	0	0.000	0
20070906 06:50	7.6	6.2	7.6	84	5.1	8	18	270	0.00	1024.182	0	0.000	0
20070906 06:55	7.6	6.1	7.6	85	5.2	8	16	247	0.00	1024.081	0	0.000	0
20070906 07:00	7.6	5.8	7.6	85	5.2	10	21	270	0.00	1024.115	0	0.020	0
20070906 07:05	7.5	5.7	7.5	86	5.3	10	16	270	0.00	1024.182	0	0.000	0
20070906 07:10	7.4	6.4	7.4	86	5.2	6	16	270	0.00	1024.182	0	0.000	0
20070906 07:15	7.3	5.9	7.3	87	5.3	8	18	270	0.20	1024.081	0	0.000	0
20070906 07:20	7.2	5.7	7.2	87	5.2	8	18	247	0.00	1024.047	0	0.000	0
20070906 07:25	7.2	5.7	7.2	88	5.4	8	16	247	0.20	1024.115	0	0.000	0
20070906 07:30	7.2	5.7	7.2	88	5.3	8	14	247	0.00	1024.047	0	0.000	0
20070906 07:35	7.1	5.6	7.1	89	5.4	8	16	247	0.00	1023.878	0	0.000	0
20070906 07:40	7.0	5.1	7.0	89	5.3	10	24	247	0.20	1023.607	2	0.000	0
20070906 07:45	7.0	5.1	7.0	89	5.3	10	18	247	0.00	1023.708	8	0.000	0
20070906 07:50	7.0	5.1	7.0	89	5.3	10	21	247	0.00	1023.945	11	0.000	0
20070906 07:55	7.0	5.1	7.0	89	5.3	10	21	270	0.00	1023.945	9	0.000	0
20070906 08:00	7.0	5.9	7.0	89	5.3	6	18	247	0.00	1023.979	7	0.020	0
20070906 08:05	7.1	6.0	7.1	89	5.4	6	11	247	0.00	1024.047	7	0.000	0
20070906 08:10	7.0	5.5	7.0	89	5.3	8	14	270	0.00	1024.013	6	0.000	0
20070906 08:15	7.0	5.5	7.0	89	5.3	8	19	270	0.00	1023.878	7	0.000	0
20070906 08:20	7.0	5.5	7.0	89	5.3	8	18	270	0.00	1024.013	5	0.000	0
20070906 08:25	7.0	5.1	7.0	89	5.3	10	24	247	0.20	1024.047	4	0.000	0
20070906 08:30	7.0	5.5	7.0	89	5.3	8	18	270	0.00	1024.419	6	0.000	0
20070906 08:35	7.1	6.0	7.1	89	5.4	6	13	270	0.20	1024.419	7	0.000	0
20070906 08:40	7.1	6.0	7.1	90	5.5	6	14	270	0.00	1024.453	6	0.000	0
20070906 08:45	7.1	7.1	7.1	90	5.5	5	13	270	0.20	1024.318	11	0.000	0
20070906 08:50	7.1	6.0	7.1	90	5.5	6	14	270	0.20	1024.453	11	0.000	0
20070906 08:55	7.1	5.6	7.1	90	5.5	8	18	292	0.20	1024.385	14	0.000	0
20070906 09:00	7.1	5.6	7.1	90	5.5	8	19	270	0.00	1024.419	11	0.000	0
20070906 09:05	7.1	5.6	7.1	90	5.5	8	16	270	0.20	1024.487	12	0.000	0
20070906 09:10	7.0	7.0	7.0	91	5.6	5	11	270	0.40	1024.250	9	0.000	0
20070906 09:15	7.0	5.9	7.0	91	5.6	6	14	270	0.20	1024.318	12	0.000	0
20070906 09:20	6.9	5.4	6.9	90	5.4	8	24	270	0.20	1024.724	11	0.000	0
20070906 09:25	7.0	5.9	7.0	91	5.6	6	16	270	0.40	1024.521	15	0.000	0
20070906 09:30	7.1	4.9	7.1	90	5.5	11	19	270	0.40	1024.419	13	0.000	0
20070906 09:35	7.0	4.8	7.0	90	5.5	11	24	270	0.40	1024.419	13	0.000	0
20070906 09:40	6.9	5.4	6.9	91	5.6	8	16	247	0.40	1024.419	15	0.000	0
20070906 09:45	6.9	5.8	6.9	91	5.6	6	16	247	0.60	1024.623	18	0.000	0
20070906 09:50	6.9	6.9	6.9	91	5.6	5	11	270	0.40	1024.656	17	0.000	0
20070906 09:55	6.9	5.8	6.9	91	5.6	6	16	270	0.60	1024.995	18	0.000	0
20070906 10:00	6.9	5.8	6.9	92	5.7	6	10	247	0.40	1024.995	21	0.020	0
20070906 10:05	6.9	5.8	6.9	92	5.7	6	16	247	0.20	1025.266	22	0.000	0
20070906 10:10	6.9	6.9	6.9	92	5.7	5	10	270	0.40	1025.300	16	0.000	0
20070906 10:15	6.9	6.9	6.9	92	5.7	5	16	292	0.40	1025.232	13	0.000	0
20070906 10:20	6.9	6.9	6.9	91	5.6	3	10	270	0.40	1025.130	20	0.000	0
20070906 10:25	7.0	7.0	7.0	92	5.8	3	8	270	0.20	1025.130	14	0.000	0
20070906 10:30	7.0	5.9	7.0	91	5.6	6	19	270	0.20	1025.029	18	0.000	0
20070906 10:35	7.0	5.1	7.0	91	5.6	10	21	270	0.40	1024.927	18	0.000	0
20070906 10:40	7.0	4.8	7.0	91	5.6	11	23	270	0.40	1024.826	22	0.000	0
20070906 10:45	7.0	5.9	7.0	92	5.8	6	14	270	0.40	1024.826	20	0.000	0
20070906 10:50	7.0	7.0	7.0	92	5.8	5	14	247	0.20	1024.893	19	0.000	0
20070906 10:55	7.0	7.0	7.0	92	5.8	5	10	270	0.40	1025.029	19	0.000	0
20070906 11:00	7.0	7.0	7.0	92	5.8	5	11	270	0.60	1024.995	15	0.020	0
20070906 11:05	7.0	7.0	7.0	92	5.8	5	11	270	0.40	1024.961	18	0.000	0
20070906 11:10	6.9	5.8	6.9	92	5.7	6	13	247	0.40	1024.995	18	0.000	0
20070906 11:15	6.9	5.4	6.9	92	5.7	8	19	247	0.40	1024.961	23	0.000	0
20070906 11:20	7.0	5.9	7.0	92	5.8	6	11	247	0.20	1025.029	24	0.000	0
20070906 11:25	7.0	5.9	7.0	93	5.9	6	14	247	0.20	1024.927	24	0.000	0
20070906 11:30	7.1	5.6	7.1	93	6.0	8	19	247	0.20	1024.623	30	0.000	0
20070906 11:35	7.1	5.2	7.1	93	6.0	10	21	247	0.20	1024.521	27	0.000	0
20070906 11:40	7.1	5.3	7.1	92	5.9	10	24	247	0.00	1024.555	30	0.000	0
20070906 11:45	7.2	5.7	7.2	92	6.0	8	21	270	0.20	1024.792	32	0.000	0
20070906 11:50	7.2	6.1	7.2	92	6.0	6	14	270	0.20	1024.758	30	0.000	0
20070906 11:55	7.2	6.2	7.2	93	6.2	6	16	270	0.00	1024.724	31	0.000	0
20070906 12:00	7.2	5.4	7.2	92	6.0	10	23	247	0.20	1024.961	29	0.020	0
20070906 12:05	7.2	5.4	7.2	92	6.0	10	23	247	0.20	1025.063	28	0.000	0
20070906 12:10	7.3	6.2	7.3	92	6.1	6	16	270	0.00	1025.029	21	0.000	0
20070906 12:15	7.3	5.8	7.3	92	6.1	8	14	270	0.40	1025.097	23	0.000	0
20070906 12:20	7.3	5.9	7.3	92	6.1	8	18	270	0.20	1024.893	29	0.000	0
20070906 12:25	7.3	5.9	7.3	92	6.1	8	14	270	0.20	1025.063	27	0.000	0
20070906 12:30	7.3	5.2	7.3	92	6.1	11	24	247	0.20	1025.063	31	0.000	0
20070906 12:35	7.4	5.3	7.4	92	6.2	11	21	270	0.20	1025.198	27	0.000	0
20070906 12:40	7.3	5.5	7.3	92	6.1	10	21	270	0.40	1025.266	24	0.000	0
20070906 12:45	7.4	5.6	7.4	92	6.2	10	19	270	0.20	1025.232	32	0.000	0
20070906 12:50	7.4	6.4	7.4	92	6.2	6	16	270	0.20	1025.063	27	0.000	0
20070906 12:55	7.4	6.4	7.4	92	6.2	6	14	270	0.40	1025.029	24	0.000	0
20070906 13:00	7.4	6.4	7.4	92	6.2	6	16	270	0.20	1025.029	29	0.000	0
20070906 13:05	7.4	6.4	7.4	92	6.2	6	16	247	0.20	1024.724	42	0.020	0
20070906 13:10	7.5	5.2	7.5	92	6.3	13	27	247	0.20	1024.589	49	0.000	0
20070906 13:15	7.5	5.7	7.5	92	6.3	10	26	247	0.20	1024.623	50	0.000	0
20070906 13:20	7.6	5.8	7.6	92	6.3	10	21	247	0.00	1024.656	55	0.000	0
20070906 13:25	7.6	5.9	7.6	91	6.2	10	21	247	0.20	1024.623	53	0.000	0
20070906 13:30	7.6	5.9	7.6	91	6.2	10	18	247	0.00	1024.589	54	0.000	0
20070906 13:35	7.7	6.3	7.7	91	6.3	8	19	247	0.20	1024.555	63	0.000	0
20070906 13:40	7.7	5.6	7.7	91	6.3	11	23	247	0.00	1024.419	60	0.000	0
20070906 13:45	7.7	6.3	7.7	92	6.5	8	16	247	0.20	1024.453	64	0.000	0
20070906 13:50	7.8	6.1	7.8	91	6.4	10	18	247	0.20	1024.453	54	0.000	0
20070906 13:55	7.8	6.1	7.8	91	6.4	10	27	247	0.20	1024.487	52	0.000	0
20070906 14:00	7.8	6.4	7.8	91	6.4	8	19	247	0.20	1024.555	52	0.020	0
20070906 14:05	7.8	6.4	7.8	91	6.4	8	19	247	0.00	1024.453	52	0.000	0
20070906 14:10	7.8	6.1	7.8	91	6.5	10	18	247	0.00	1024.352	52	0.000	0
20070906 14:15	7.8	6.5	7.8	91	6.5	8	21	247	0.20	1024.352	54	0.000	0
20070906 14:20	7.8	5.8	7.8	91	6.5	11	26	247	0.20	1024.216	55	0.000	0
20070906 14:25	7.8	6.1	7.8	91	6.5	10	18	247	0.40	1024.047	54	0.000	0
20070906 14:30	7.8	6.1	7.8	92	6.6	10	18	270	0.20	1023.945	53	0.000	0
20070906 14:35	7.9	5.9	7.9	91	6.5	11	23	247	0.20	1023.844	59	0.000	0
20070906 14:40	7.9	7.0	7.9	91	6.6	6	16	247	0.40	1023.945	59	0.000	0
20070906 14:45	8.0	6.7	8.0	91	6.6	8	19	247	0.20	1023.979	58	0.000	0
20070906 14:50	8.1	7.1	8.1	92	6.8	6	18	247	0.20	1023.945	54	0.000	0
20070906 14:55	8.1	6.7	8.1	91	6.7	8	24	270	0.00	1023.844	47	0.000	0
20070906 15:00	8.2	6.5	8.2	91	6.8	10	19	247	0.20	1023.708	51	0.020	0
20070906 15:05	8.2	6.9	8.2	92	6.9	8	24	247	0.20	1023.742	58	0.000	0
20070906 15:10	8.2	7.3	8.2	91	6.8	6	14	247	0.40	1023.640	58	0.000	0
20070906 15:15	8.2	6.9	8.2	91	6.8	8	18	247	0.20	1023.674	58	0.000	0
20070906 15:20	8.3	8.3	8.3	91	6.9	5	14	247	0.00	1023.640	37	0.000	0
20070906 15:25	8.3	6.7	8.3	91	6.9	10	19	247	0.20	1023.539	44	0.000	0
20070906 15:30	8.3	7.1	8.3	91	7.0	8	18	247	0.20	1023.539	43	0.000	0
20070906 15:35	8.3	7.4	8.3	91	7.0	6	11	247	0.00	1023.505	41	0.000	0
20070906 15:40	8.4	7.1	8.4	91	7.0	8	19	247	0.20	1023.471	42	0.000	0
20070906 15:45	8.4	7.5	8.4	91	7.0	6	16	247	0.20	1023.370	50	0.000	0
20070906 15:50	8.4	6.9	8.4	91	7.1	10	21	247	0.00	1023.200	47	0.000	0
20070906 15:55	8.5	6.6	8.5	91	7.1	11	23	247	0.20	1023.065	52	0.000	0
20070906 16:00	8.5	6.6	8.5	91	7.1	11	24	247	0.20	1023.268	46	0.020	0
20070906 16:05	8.6	7.0	8.6	90	7.0	10	19	247	0.20	1023.302	46	0.000	0
20070906 16:10	8.6	7.3	8.6	90	7.0	8	18	247	0.20	1023.370	54	0.000	0
20070906 16:15	8.6	7.4	8.6	91	7.2	8	21	247	0.00	1023.200	42	0.000	0
20070906 16:20	8.7	7.1	8.7	90	7.1	10	18	247	0.20	1023.268	43	0.000	0
20070906 16:25	8.7	7.4	8.7	91	7.3	8	23	247	0.20	1023.234	45	0.000	0
20070906 16:30	8.7	7.4	8.7	91	7.3	8	19	247	0.20	1023.302	32	0.000	0
20070906 16:35	8.7	7.4	8.7	91	7.3	8	21	247	0.00	1023.336	29	0.000	0
20070906 16:40	8.7	7.2	8.7	91	7.3	10	21	247	0.20	1023.268	28	0.000	0
20070906 16:45	8.7	7.5	8.7	90	7.2	8	23	247	0.20	1023.302	28	0.000	0
20070906 16:50	8.7	7.9	8.7	91	7.3	6	14	247	0.20	1023.403	25	0.000	0
20070906 16:55	8.7	7.9	8.7	91	7.3	6	14	247	0.00	1023.403	26	0.000	0
20070906 17:00	8.8	8.0	8.8	91	7.4	6	18	247	0.20	1023.403	30	0.020	0
20070906 17:05	8.8	7.6	8.8	91	7.4	8	21	247	0.20	1023.437	26	0.000	0
20070906 17:10	8.8	8.0	8.8	92	7.5	6	14	270	0.20	1023.505	25	0.000	0
20070906 17:15	8.8	8.0	8.8	92	7.5	6	14	247	0.20	1023.505	22	0.000	0
20070906 17:20	8.8	8.0	8.8	92	7.5	6	16	270	0.20	1023.539	20	0.000	0
20070906 17:25	8.8	8.0	8.8	92	7.6	6	11	247	0.00	1023.539	20	0.000	0
20070906 17:30	8.8	7.6	8.8	92	7.6	8	18	247	0.20	1023.539	21	0.000	0
20070906 17:35	8.8	8.0	8.8	92	7.6	6	18	270	0.40	1023.505	18	0.000	0
20070906 17:40	8.8	8.0	8.8	92	7.6	6	13	247	0.20	1023.573	17	0.000	0
20070906 17:45	8.9	8.1	8.9	91	7.5	6	14	247	0.20	1023.573	14	0.000	0
20070906 17:50	8.9	8.1	8.9	92	7.7	6	14	247	0.40	1023.539	10	0.000	0
20070906 17:55	8.9	8.9	8.9	92	7.7	5	14	247	0.20	1023.573	12	0.000	0
20070906 18:00	8.9	8.9	8.9	92	7.7	5	10	247	0.20	1023.640	11	0.020	0
20070906 18:05	8.9	8.2	8.9	92	7.7	6	11	247	0.20	1023.607	8	0.000	0
20070906 18:10	9.0	9.0	9.0	92	7.8	5	8	247	0.40	1023.640	9	0.000	0
20070906 18:15	9.0	9.0	9.0	92	7.8	5	11	247	0.20	1023.640	12	0.000	0
20070906 18:20	9.0	9.0	9.0	92	7.8	5	8	247	0.00	1023.607	9	0.000	0
20070906 18:25	9.1	9.1	9.1	92	7.8	5	11	247	0.40	1023.539	7	0.000	0
20070906 18:30	9.1	9.1	9.1	92	7.8	5	10	247	0.20	1023.539	9	0.000	0
20070906 18:35	9.1	9.1	9.1	92	7.8	5	10	247	0.20	1023.640	5	0.000	0
20070906 18:40	9.1	8.3	9.1	92	7.9	6	11	247	0.00	1023.539	5	0.000	0
20070906 18:45	9.2	8.4	9.2	92	7.9	6	16	247	0.20	1023.573	0	0.000	0
20070906 18:50	9.2	8.5	9.2	93	8.1	6	11	247	0.20	1023.539	1	0.000	0
20070906 18:55	9.3	8.2	9.3	93	8.2	8	16	247	0.40	1023.505	0	0.000	0
20070906 19:00	9.4	8.0	9.4	93	8.3	10	16	247	0.00	1023.471	0	0.000	0
20070906 19:05	9.4	8.4	9.4	93	8.4	8	14	247	0.20	1023.505	0	0.000	0
20070906 19:10	9.5	8.1	9.5	93	8.4	10	23	247	0.20	1023.437	2	0.000	0
20070906 19:15	9.6	7.9	9.6	93	8.5	11	24	270	0.20	1023.437	2	0.000	0
20070906 19:20	9.6	8.2	9.6	93	8.5	10	18	270	0.20	1023.403	3	0.000	0
20070906 19:25	9.6	8.2	9.6	93	8.5	10	19	247	0.00	1023.336	0	0.000	0
20070906 19:30	9.6	7.9	9.6	93	8.5	11	21	270	0.20	1023.336	0	0.000	0
20070906 19:35	9.6	7.9	9.6	93	8.5	11	24	270	0.20	1023.370	0	0.000	0
20070906 19:40	9.6	8.2	9.6	93	8.5	10	19	247	0.40	1023.370	0	0.000	0
20070906 19:45	9.6	8.2	9.6	93	8.5	10	18	270	0.20	1023.370	0	0.000	0
20070906 19:50	9.6	7.9	9.6	93	8.5	11	24	247	0.20	1023.403	0	0.000	0
20070906 19:55	9.6	8.2	9.6	93	8.5	10	26	247	0.00	1023.403	0	0.000	0
20070906 20:00	9.6	8.2	9.6	93	8.5	10	23	247	0.40	1023.471	0	0.000	0
20070906 20:05	9.6	7.9	9.6	93	8.5	11	21	247	0.20	1023.471	0	0.000	0
20070906 20:10	9.6	8.2	9.6	93	8.5	10	21	247	0.20	1023.607	0	0.000	0
20070906 20:15	9.6	8.2	9.6	93	8.5	10	23	247	0.00	1023.640	0	0.000	0
20070906 20:20	9.6	8.2	9.6	93	8.5	10	21	247	0.00	1023.674	0	0.000	0
20070906 20:25	9.6	8.2	9.6	93	8.5	10	19	247	0.20	1023.640	0	0.000	0
20070906 20:30	9.6	8.2	9.6	93	8.5	10	18	247	0.20	1023.674	0	0.000	0
20070906 20:35	9.6	7.9	9.6	93	8.5	11	26	247	0.00	1023.708	0	0.000	0
20070906 20:40	9.6	8.5	9.6	93	8.5	8	27	247	0.20	1023.708	0	0.000	0
20070906 20:45	9.6	8.2	9.6	94	8.6	10	23	247	0.20	1023.776	0	0.000	0
20070906 20:50	9.6	8.2	9.6	94	8.6	10	21	247	0.00	1023.674	0	0.000	0
20070906 20:55	9.6	8.2	9.6	94	8.6	10	19	247	0.00	1023.742	0	0.000	0
20070906 21:00	9.6	8.2	9.6	94	8.7	10	23	247	0.20	1023.776	0	0.000	0
20070906 21:05	9.7	8.0	9.7	93	8.6	11	32	270	0.00	1023.776	0	0.000	0
20070906 21:10	9.7	8.0	9.7	93	8.6	11	23	270	0.20	1023.844	0	0.000	0
20070906 21:15	9.7	8.4	9.7	93	8.6	10	24	270	0.00	1023.776	0	0.000	0
20070906 21:20	9.7	8.7	9.7	93	8.6	8	19	270	0.20	1023.776	0	0.000	0
20070906 21:25	9.7	8.7	9.7	93	8.6	8	16	270	0.20	1023.844	0	0.000	0
20070906 21:30	9.7	8.4	9.7	93	8.6	10	16	270	0.20	1023.810	0	0.000	0
20070906 21:35	9.8	8.4	9.8	93	8.7	10	19	270	0.00	1023.878	0	0.000	0
20070906 21:40	9.8	8.7	9.8	94	8.9	8	16	270	0.20	1023.979	0	0.000	0
20070906 21:45	9.8	9.1	9.8	94	8.9	6	16	270	0.20	1023.844	0	0.000	0
20070906 21:50	9.8	8.7	9.8	94	8.9	8	19	270	0.00	1023.911	0	0.000	0
20070906 21:55	9.8	9.1	9.8	94	8.9	6	11	270	0.00	1023.945	0	0.000	0
20070906 22:00	9.8	9.1	9.8	94	8.9	6	16	270	0.20	1024.013	0	0.000	0
20070906 22:05	9.8	9.8	9.8	94	8.9	5	11	247	0.00	1024.115	0	0.000	0
20070906 22:10	9.8	9.2	9.8	94	8.9	6	18	247	0.00	1023.979	0	0.000	0
20070906 22:15	9.8	9.1	9.8	94	8.9	6	16	270	0.00	1023.945	0	0.000	0
20070906 22:20	9.8	8.8	9.8	94	8.9	8	14	270	0.00	1023.945	0	0.000	0
20070906 22:25	9.8	8.8	9.8	94	8.9	8	19	270	0.20	1023.844	0	0.000	0
20070906 22:30	9.8	9.2	9.8	94	8.9	6	14	270	0.00	1023.945	0	0.000	0
20070906 22:35	9.8	8.8	9.8	94	8.9	8	18	247	0.00	1023.844	0	0.000	0
20070906 22:40	9.8	8.8	9.8	94	8.9	8	16	247	0.00	1023.810	0	0.000	0
20070906 22:45	9.9	9.2	9.9	94	9.0	6	16	247	0.00	1023.776	0	0.000	0
20070906 22:50	9.9	8.9	9.9	94	9.0	8	16	247	0.00	1023.810	0	0.000	0
20070906 22:55	9.9	8.9	9.9	94	9.0	8	16	247	0.00	1023.844	0	0.000	0
20070906 23:00	9.9	8.9	9.9	94	9.0	8	19	247	0.20	1023.878	0	0.000	0
20070906 23:05	9.9	8.9	9.9	94	9.0	8	16	247	0.00	1023.945	0	0.000	0
20070906 23:10	9.9	9.3	9.9	94	9.0	6	11	247	0.00	1023.911	0	0.000	0
20070906 23:15	9.9	9.9	9.9	94	9.0	5	11	247	0.20	1023.945	0	0.000	0
20070906 23:20	10.0	10.0	10.0	94	9.1	6	8	247	0.00	1023.979	0	0.000	0
20070906 23:25	10.0	10.0	10.0	94	9.1	6	18	247	0.20	1023.945	0	0.000	0
20070906 23:30	10.1	10.1	10.1	94	9.1	6	10	247	0.20	1023.945	0	0.000	0
20070906 23:35	10.1	10.1	10.1	94	9.1	6	14	247	0.20	1023.979	0	0.000	0
20070906 23:40	10.1	10.1	10.1	94	9.1	6	13	225	0.00	1023.878	0	0.000	0
20070906 23:45	10.1	10.1	10.1	94	9.1	5	10	247	0.20	1023.911	0	0.000	0
20070906 23:50	10.1	10.1	10.1	94	9.1	5	11	247	0.00	1023.911	0	0.000	0
20070906 23:55	10.1	10.1	10.1	94	9.1	5	13	270	0.00	1023.844	0	0.000	0
20070906 24:00	10.1	10.1	10.1	94	9.1	6	11	270	0.00	1023.776	0	0.000	0



Please note the license to use and transfer of this data:
http://creativecommons.org/licenses/by-nc-sa/3.0/deed.en

Bitte beachten sie die Lizenz zur Verwertung und Weitergabe der Daten:
http://creativecommons.org/licenses/by-nc-sa/3.0/deed.de

zurück zur Übersicht der Archivdaten (Monats und Tagesdaten)

Cookies helfen bei der Bereitstellung von Inhalten. Durch die Nutzung dieser Seiten erklärst du dich damit einverstanden, dass Cookies auf deinem Rechner gespeichert werden. Weitere Information